STAZIONE METEO DI BARCELLONA P.G. CENTRO
Dati campionati ogni minuto da Consolle Davis Vantage Pro 2
ed inviati alla rete mediante server Anemos WDS5 wview



Barcellona P.G. Centro more information Barcellona P.G. Centro


Golfo di Patti more information Golfo di Patti


Thunder radar more information blitzortung!


Rain radar  rain snow radar



Notice: Undefined offset: 0 in /web/htdocs/www.barcellonameteo.it/home/weather28/wsSideColom.php on line 200

altri nostri siti meteo:

Rete NOAA MADIS

Italia Meteo Network

Pomeziameteo

Varazze Meteo



Vento Inizio validità dal: 23-02-2018 12:00 Fino: 24-02-2018 23:59 Allerta per: Vento Livello: Giallo info button
english:
No Special Awareness Required BE AWARE, keep up to date with the latest weather forecast. Expect some minor disruption to outdoor activities

italiano:
Nessun Avviso STARE (RIMANERE) ATTENTI. Tenersi aggiornati con le previsioni del tempo più recenti. Aspettarsi alcuni disagi minori per le attività all'aria aperta. 

Report METAR

   
LICF - Barcellona Pozzo di Gotto
Dati ricevuti: 24-02-2018 07:55
Molto nuvoloso  
Molto nuvoloso  
   Vento: West 11.1 km/h
Vento: West 11.1 km/h
Temperatura: 11°C
P.to Rugiada: 4°C
Umidità: 62%
Barometro: 1005 hPa
Nuvole: Molto nuvoloso
Visibilità: oltre 10 km
dettagli cloud: Molto nuvoloso 1219.2 m
LICF 240655Z 28006KT 9999 BKN040 11/04 Q1005 RMK BKN QUK 2 QUL 0 VIS MAR 14 KM MON LIB NC VIS MIN 9999
LICC - Catania
Dati ricevuti: 24-02-2018 08:20
Sereno  
Sereno  
   Vento: West 20.4 km/h
Vento: West 20.4 km/h
Temperatura: 10°C
Temperatura Vento: 7°C
P.to Rugiada: 5°C
Umidità: 71%
Barometro: 1007 hPa
Visibilità: oltre 10 km
dettagli cloud: Sereno
LICC 240720Z 28011KT CAVOK 10/05 Q1007
LICJ - Palermo
Dati ricevuti: 24-02-2018 08:20
Parzialmente nuvoloso  
Parzialmente nuvoloso  
   Vento: S 20.4 km/h
Vento: S 20.4 km/h
Temperatura: 12°C
P.to Rugiada: 5°C
Umidità: 63%
Barometro: 1007 hPa
Nuvole: Parzialmente nuvoloso
Visibilità: oltre 10 km
dettagli cloud: Parzialmente nuvoloso 1219.2 m
LICJ 240720Z 20011KT 9999 SCT040 12/05 Q1007
LICF - Messina
Dati ricevuti: 24-02-2018 07:55
Molto nuvoloso  
Molto nuvoloso  
   Vento: West 11.1 km/h
Vento: West 11.1 km/h
Temperatura: 11°C
P.to Rugiada: 4°C
Umidità: 62%
Barometro: 1005 hPa
Nuvole: Molto nuvoloso
Visibilità: oltre 10 km
dettagli cloud: Molto nuvoloso 1219.2 m
LICF 240655Z 28006KT 9999 BKN040 11/04 Q1005 RMK BKN QUK 2 QUL 0 VIS MAR 14 KM MON LIB NC VIS MIN 9999
LICC - Milazzo
Dati ricevuti: 24-02-2018 08:20
Sereno  
Sereno  
   Vento: West 20.4 km/h
Vento: West 20.4 km/h
Temperatura: 10°C
Temperatura Vento: 7°C
P.to Rugiada: 5°C
Umidità: 71%
Barometro: 1007 hPa
Visibilità: oltre 10 km
dettagli cloud: Sereno
LICC 240720Z 28011KT CAVOK 10/05 Q1007
LICC - Terme Vigliatore
Dati ricevuti: 24-02-2018 08:20
Sereno  
Sereno  
   Vento: West 20.4 km/h
Vento: West 20.4 km/h
Temperatura: 10°C
Temperatura Vento: 7°C
P.to Rugiada: 5°C
Umidità: 71%
Barometro: 1007 hPa
Visibilità: oltre 10 km
dettagli cloud: Sereno
LICC 240720Z 28011KT CAVOK 10/05 Q1007
LICT - Trapani
Dati ricevuti: 24-02-2018 07:55
Parzialmente nuvoloso  
Parzialmente nuvoloso  
   Vento: West 18.5 km/h
Vento: West 18.5 km/h
Temperatura: 11°C
P.to Rugiada: 7°C
Umidità: 77%
Barometro: 1007 hPa
Nuvole: Parzialmente nuvoloso
Visibilità: oltre 10 km
dettagli cloud: Parzialmente nuvoloso 762 m
LICT 240655Z 26010KT 9999 SCT025 11/07 Q1007
  

Script sviluppato da  Saratoga-weather.org Adattato per il modello da  Weerstation Leuven

Potete trovare le nostre info meteo anche a:

European Weather Network

Weather Underground

AWEKAS

Citizen Weather Observer Program (CWOP)

HAMweather, WeatherForYou, PWS Weather

Strumentazione usata:

Stazione meteo
Davis VP2

Programma gestore dati meteo
WVIEW

Server per i dati meteo
WDS5 Ecoblack

Davis VP2

WVIEW

WDS5 Ecoblack